createdAt,value
2022-09-28T00:01:17.561Z,12.90
2022-09-28T00:03:46.298Z,12.90
2022-09-28T00:06:16.016Z,12.90
2022-09-28T00:08:43.559Z,12.80
2022-09-28T00:11:13.730Z,12.80
2022-09-28T00:13:44.664Z,12.90
2022-09-28T00:16:14.895Z,12.90
2022-09-28T00:18:41.991Z,12.80
2022-09-28T00:21:13.684Z,12.80
2022-09-28T00:24:00.870Z,12.80
2022-09-28T00:26:28.963Z,12.80
2022-09-28T00:29:00.358Z,12.80
2022-09-28T00:31:29.601Z,12.80
2022-09-28T00:34:00.334Z,12.60
2022-09-28T00:36:28.643Z,12.60
2022-09-28T00:38:56.495Z,12.60
2022-09-28T00:41:25.071Z,12.70
2022-09-28T00:43:52.541Z,12.70
2022-09-28T00:46:28.884Z,12.70
2022-09-28T00:49:00.164Z,12.80
2022-09-28T00:51:27.480Z,12.80
2022-09-28T00:53:56.179Z,12.80
2022-09-28T00:56:26.475Z,12.80
2022-09-28T00:58:54.610Z,12.80
2022-09-28T01:01:21.736Z,12.80
2022-09-28T01:03:48.918Z,12.80
2022-09-28T01:06:20.520Z,12.80
2022-09-28T01:08:51.178Z,12.80
2022-09-28T01:11:19.626Z,12.70
2022-09-28T01:13:50.081Z,12.70
2022-09-28T01:16:38.638Z,12.60
2022-09-28T01:19:37.643Z,12.60
2022-09-28T01:22:27.559Z,12.60
2022-09-28T01:25:41.004Z,12.60
2022-09-28T01:28:19.303Z,12.60
2022-09-28T01:31:09.747Z,12.60
2022-09-28T01:33:44.793Z,12.60
2022-09-28T01:36:25.892Z,12.70
2022-09-28T01:38:59.074Z,12.60
2022-09-28T01:41:28.811Z,12.60
2022-09-28T01:43:57.532Z,12.60
2022-09-28T01:46:30.316Z,12.60
2022-09-28T01:48:58.664Z,12.60
2022-09-28T01:51:34.331Z,12.50
2022-09-28T01:54:10.711Z,12.60
2022-09-28T01:56:44.614Z,12.50
2022-09-28T01:59:16.217Z,12.40
2022-09-28T02:02:09.794Z,12.50
2022-09-28T02:04:44.040Z,12.60
2022-09-28T02:07:20.391Z,12.60
2022-09-28T02:09:52.880Z,12.50
2022-09-28T02:12:26.291Z,12.50
2022-09-28T02:14:59.433Z,12.50
2022-09-28T02:17:26.267Z,12.50
2022-09-28T02:19:53.052Z,12.30
2022-09-28T02:22:28.530Z,12.40
2022-09-28T02:25:09.899Z,12.40
2022-09-28T02:27:43.988Z,12.40
2022-09-28T02:30:11.379Z,12.40
2022-09-28T02:32:42.574Z,12.40
2022-09-28T02:35:12.656Z,12.40
2022-09-28T02:37:40.587Z,12.30
2022-09-28T02:40:19.616Z,12.40
2022-09-28T02:43:09.677Z,12.30
2022-09-28T02:45:58.338Z,12.20
2022-09-28T02:49:20.259Z,12.10
2022-09-28T02:52:25.666Z,12.10
2022-09-28T02:54:58.260Z,12.10
2022-09-28T02:58:03.576Z,12.20
2022-09-28T03:00:33.637Z,12.20
2022-09-28T03:03:19.715Z,12.10
2022-09-28T03:06:03.324Z,12.10
2022-09-28T03:08:35.531Z,12.20
2022-09-28T03:11:25.133Z,12.20
2022-09-28T03:13:52.930Z,12.10
2022-09-28T03:16:20.242Z,12.20
2022-09-28T03:18:47.723Z,12.10
2022-09-28T03:21:15.471Z,12.20
2022-09-28T03:23:43.297Z,12.20
2022-09-28T03:26:12.890Z,12.30
2022-09-28T03:28:40.122Z,12.20
2022-09-28T03:31:07.262Z,12.20
2022-09-28T03:33:34.115Z,12.30
2022-09-28T03:36:01.008Z,12.20
2022-09-28T03:38:27.667Z,12.20
2022-09-28T03:40:59.674Z,12.10
2022-09-28T03:43:27.535Z,12.20
2022-09-28T03:45:55.719Z,12.10
2022-09-28T03:48:41.633Z,12.10
2022-09-28T03:51:10.430Z,12.20
2022-09-28T03:53:37.877Z,12.10
2022-09-28T03:56:12.271Z,12.10
2022-09-28T03:58:39.197Z,12.10
2022-09-28T04:01:12.967Z,12.10
2022-09-28T04:03:43.422Z,12.10
2022-09-28T04:06:10.465Z,12.10
2022-09-28T04:08:37.337Z,12.10
2022-09-28T04:11:04.054Z,12.10
2022-09-28T04:13:31.184Z,12.10
2022-09-28T04:16:00.591Z,12.10
2022-09-28T04:18:27.696Z,12.10
2022-09-28T04:21:08.957Z,12.10
2022-09-28T04:23:37.487Z,12.00
2022-09-28T04:26:06.288Z,12.00
2022-09-28T04:28:51.626Z,12.00
2022-09-28T04:31:21.777Z,12.10
2022-09-28T04:33:48.734Z,12.10
2022-09-28T04:36:15.654Z,12.10
2022-09-28T04:38:52.672Z,12.10
2022-09-28T04:41:22.201Z,12.10
2022-09-28T04:43:49.214Z,12.00
2022-09-28T04:46:16.065Z,12.00
2022-09-28T04:48:42.796Z,12.00
2022-09-28T04:51:09.560Z,12.10
2022-09-28T04:53:36.233Z,12.00
2022-09-28T04:56:09.497Z,12.10
2022-09-28T04:58:36.511Z,12.20
2022-09-28T05:01:10.740Z,12.20
2022-09-28T05:03:38.354Z,12.20
2022-09-28T05:06:06.915Z,12.20
2022-09-28T05:08:35.270Z,12.10
2022-09-28T05:11:05.338Z,12.00
2022-09-28T05:13:35.664Z,11.90
2022-09-28T05:16:05.393Z,12.10
2022-09-28T05:18:32.560Z,12.10
2022-09-28T05:20:59.400Z,12.00
2022-09-28T05:23:26.160Z,12.20
2022-09-28T05:25:53.077Z,12.30
2022-09-28T05:28:25.288Z,13.10
2022-09-28T05:30:52.332Z,13.30
2022-09-28T05:33:19.090Z,13.40
2022-09-28T05:35:47.934Z,13.50
2022-09-28T05:38:17.847Z,13.50
2022-09-28T05:40:44.605Z,13.60
2022-09-28T05:43:11.506Z,13.50
2022-09-28T05:45:38.330Z,13.30
2022-09-28T05:48:05.187Z,13.40
2022-09-28T05:50:33.049Z,13.50
2022-09-28T05:53:06.082Z,13.60
2022-09-28T05:55:33.238Z,13.60
2022-09-28T05:58:01.533Z,13.70
2022-09-28T06:00:29.476Z,13.70
2022-09-28T06:02:57.912Z,13.80
2022-09-28T06:05:24.954Z,13.70
2022-09-28T06:07:51.947Z,13.70
2022-09-28T06:10:18.708Z,13.70
2022-09-28T06:12:47.809Z,13.70
2022-09-28T06:15:16.254Z,13.70
2022-09-28T06:17:43.837Z,13.70
2022-09-28T06:20:11.631Z,13.40
2022-09-28T06:22:38.808Z,14.00
2022-09-28T06:25:07.154Z,14.20
2022-09-28T06:27:34.562Z,14.50
2022-09-28T06:30:02.227Z,14.40
2022-09-28T06:32:29.743Z,14.60
2022-09-28T06:34:57.502Z,14.70
2022-09-28T06:37:25.970Z,14.80
2022-09-28T06:39:58.590Z,14.80
2022-09-28T06:42:27.322Z,12.70
2022-09-28T06:44:59.200Z,11.60
2022-09-28T06:47:40.013Z,11.50
2022-09-28T06:50:12.157Z,11.60
2022-09-28T06:52:46.047Z,11.50
2022-09-28T06:55:12.712Z,11.60
2022-09-28T06:57:43.637Z,12.10
2022-09-28T07:00:10.930Z,11.90
2022-09-28T07:02:37.691Z,12.50
2022-09-28T07:05:14.724Z,12.80
2022-09-28T07:07:44.755Z,13.00
2022-09-28T07:10:12.851Z,12.80
2022-09-28T07:12:40.589Z,12.90
2022-09-28T07:15:09.091Z,13.00
2022-09-28T07:17:48.124Z,13.90
2022-09-28T07:20:21.410Z,12.60
2022-09-28T07:23:16.021Z,12.60
2022-09-28T07:25:47.886Z,12.40
2022-09-28T07:28:22.339Z,12.30
2022-09-28T07:30:49.118Z,12.20
2022-09-28T07:33:19.001Z,12.40
2022-09-28T07:36:02.762Z,12.80
2022-09-28T07:38:54.543Z,13.30
2022-09-28T07:41:32.453Z,13.60
2022-09-28T07:44:07.468Z,13.90
2022-09-28T07:46:35.183Z,14.00
2022-09-28T07:49:08.375Z,14.60
2022-09-28T07:51:38.360Z,14.60
2022-09-28T07:54:06.186Z,15.00
2022-09-28T07:56:33.990Z,14.90
2022-09-28T07:59:02.818Z,15.00
2022-09-28T08:01:30.946Z,15.20
2022-09-28T08:03:57.662Z,15.30
2022-09-28T08:06:25.455Z,15.30
2022-09-28T08:08:56.197Z,15.80
2022-09-28T08:11:22.960Z,15.70
2022-09-28T08:13:50.903Z,15.60
2022-09-28T08:16:18.345Z,15.60
2022-09-28T08:18:48.176Z,15.30
2022-09-28T08:21:33.872Z,15.40
2022-09-28T08:24:00.797Z,15.50
2022-09-28T08:26:28.970Z,15.20
2022-09-28T08:28:55.622Z,15.30
2022-09-28T08:31:22.446Z,15.40
2022-09-28T08:33:53.807Z,15.20
2022-09-28T08:36:24.135Z,16.10
2022-09-28T08:38:50.818Z,16.00
2022-09-28T08:41:35.958Z,15.50
2022-09-28T08:44:24.148Z,15.30
2022-09-28T08:47:00.933Z,15.30
2022-09-28T08:49:34.792Z,15.40
2022-09-28T08:52:16.367Z,15.40
2022-09-28T08:55:04.071Z,15.20
2022-09-28T08:57:33.445Z,15.30
2022-09-28T09:00:02.712Z,15.10
2022-09-28T09:02:33.642Z,15.20
2022-09-28T09:05:03.939Z,15.00
2022-09-28T09:07:48.721Z,15.10
2022-09-28T09:10:55.243Z,15.00
2022-09-28T09:13:43.109Z,15.20
2022-09-28T09:16:27.134Z,15.40
2022-09-28T09:19:12.614Z,15.40
2022-09-28T09:21:42.185Z,15.30
2022-09-28T09:24:51.144Z,15.10
2022-09-28T09:27:27.922Z,14.80
2022-09-28T09:30:19.423Z,15.10
2022-09-28T09:33:05.970Z,15.20
2022-09-28T09:35:37.471Z,15.20
2022-09-28T09:38:27.801Z,15.10
2022-09-28T09:41:15.882Z,15.30
2022-09-28T09:44:11.664Z,15.40
2022-09-28T09:46:44.333Z,15.30
2022-09-28T09:49:19.681Z,15.30
2022-09-28T09:52:06.674Z,15.30
2022-09-28T09:54:37.539Z,15.00
2022-09-28T09:57:46.582Z,14.80
2022-09-28T10:00:15.249Z,15.30
2022-09-28T10:02:44.983Z,15.50
2022-09-28T10:05:11.630Z,15.40
2022-09-28T10:08:01.599Z,15.50
2022-09-28T10:10:29.535Z,15.50
2022-09-28T10:12:56.835Z,15.40
2022-09-28T10:15:28.724Z,15.40
2022-09-28T10:17:58.976Z,15.30
2022-09-28T10:20:34.678Z,14.80
2022-09-28T10:23:04.924Z,15.20
2022-09-28T10:25:37.343Z,15.30
2022-09-28T10:28:06.880Z,15.30
2022-09-28T10:30:44.346Z,15.30
2022-09-28T10:33:34.268Z,15.40
2022-09-28T10:36:04.904Z,15.40
2022-09-28T10:38:33.851Z,15.30
2022-09-28T10:41:11.215Z,15.60
2022-09-28T10:43:53.824Z,15.80
2022-09-28T10:46:24.559Z,15.70
2022-09-28T10:48:57.813Z,15.80
2022-09-28T10:51:46.643Z,15.80
2022-09-28T10:54:52.482Z,15.90
2022-09-28T10:57:35.425Z,15.70
2022-09-28T11:00:05.211Z,15.70
2022-09-28T11:02:38.014Z,15.70
2022-09-28T11:05:06.979Z,15.70
2022-09-28T11:07:43.951Z,15.60
2022-09-28T11:10:20.598Z,15.90
2022-09-28T11:12:49.341Z,15.90
2022-09-28T11:15:24.352Z,15.90
2022-09-28T11:17:51.678Z,16.00
2022-09-28T11:20:27.388Z,15.90
2022-09-28T11:22:54.711Z,16.40
2022-09-28T11:25:24.271Z,16.00
2022-09-28T11:27:50.865Z,15.80
2022-09-28T11:30:25.154Z,15.90
2022-09-28T11:33:00.415Z,16.40
2022-09-28T11:35:43.612Z,16.30
2022-09-28T11:38:42.554Z,16.10
2022-09-28T11:41:20.628Z,16.00
2022-09-28T11:44:19.368Z,16.00
2022-09-28T11:47:00.638Z,16.10
2022-09-28T11:49:52.950Z,16.00
2022-09-28T11:52:41.468Z,16.10
2022-09-28T11:55:27.775Z,16.10
2022-09-28T11:58:06.247Z,16.20
2022-09-28T12:00:42.250Z,16.40
2022-09-28T12:03:18.487Z,16.40
2022-09-28T12:05:55.596Z,16.40
2022-09-28T12:08:30.384Z,16.30
2022-09-28T12:11:02.704Z,16.20
2022-09-28T12:13:42.224Z,16.40
2022-09-28T12:17:04.050Z,16.10
2022-09-28T12:19:29.993Z,15.50
2022-09-28T12:22:12.196Z,15.00
2022-09-28T12:24:52.556Z,15.20
2022-09-28T12:27:35.138Z,15.30
2022-09-28T12:30:21.057Z,15.50
2022-09-28T12:33:15.239Z,15.70
2022-09-28T12:35:58.731Z,15.00
2022-09-28T12:38:54.148Z,14.80
2022-09-28T12:41:43.563Z,15.40
2022-09-28T12:44:29.272Z,15.30
2022-09-28T12:47:23.475Z,15.10
2022-09-28T12:53:24.167Z,15.50
2022-09-28T12:56:24.875Z,15.20
2022-09-28T12:59:03.235Z,14.70
2022-09-28T13:01:46.641Z,14.30
2022-09-28T13:04:28.511Z,14.20
2022-09-28T13:07:13.722Z,14.30
2022-09-28T13:10:01.378Z,14.20
2022-09-28T13:12:56.141Z,15.00
2022-09-28T13:15:32.125Z,15.00
2022-09-28T13:18:17.267Z,15.00
2022-09-28T13:21:15.948Z,15.10
2022-09-28T13:23:46.194Z,15.30
2022-09-28T13:26:37.031Z,15.40
2022-09-28T13:29:11.196Z,15.30
2022-09-28T13:31:55.717Z,15.50
2022-09-28T13:34:30.753Z,15.40
2022-09-28T13:37:19.856Z,15.70
2022-09-28T13:39:53.016Z,15.50
2022-09-28T13:42:47.582Z,15.80
2022-09-28T13:45:33.895Z,15.50
2022-09-28T13:48:12.985Z,15.70
2022-09-28T13:50:45.642Z,15.80
2022-09-28T13:53:44.608Z,15.80
2022-09-28T13:56:17.567Z,15.80
2022-09-28T13:58:51.490Z,16.00
2022-09-28T14:01:24.554Z,16.20
2022-09-28T14:04:19.183Z,16.10
2022-09-28T14:06:57.461Z,16.20
2022-09-28T14:09:41.442Z,16.00
2022-09-28T14:12:31.270Z,16.20
2022-09-28T14:14:58.083Z,15.70
2022-09-28T14:17:24.928Z,15.90
2022-09-28T14:20:00.545Z,15.70
2022-09-28T14:22:57.876Z,15.90
2022-09-28T14:25:32.668Z,15.50
2022-09-28T14:28:25.026Z,15.50
2022-09-28T14:30:55.440Z,15.80
2022-09-28T14:33:22.021Z,15.70
2022-09-28T14:35:58.925Z,15.30
2022-09-28T14:39:03.844Z,15.50
2022-09-28T14:41:33.816Z,15.70
2022-09-28T14:44:05.213Z,15.50
2022-09-28T14:46:35.435Z,15.10
2022-09-28T14:49:23.292Z,15.30
2022-09-28T14:51:53.005Z,15.50
2022-09-28T14:54:21.961Z,15.10
2022-09-28T14:56:57.031Z,14.60
2022-09-28T14:59:26.916Z,14.80
2022-09-28T15:01:55.764Z,15.10
2022-09-28T15:04:27.870Z,14.90
2022-09-28T15:06:54.710Z,14.90
2022-09-28T15:09:36.245Z,14.50
2022-09-28T15:12:16.639Z,14.70
2022-09-28T15:14:55.096Z,14.70
2022-09-28T15:17:25.541Z,14.80
2022-09-28T15:19:55.391Z,14.50
2022-09-28T15:22:22.242Z,14.60
2022-09-28T15:25:02.825Z,14.30
2022-09-28T15:27:38.641Z,14.50
2022-09-28T15:30:29.512Z,14.40
2022-09-28T15:33:17.666Z,14.60
2022-09-28T15:36:02.020Z,14.70
2022-09-28T15:38:34.048Z,14.60
2022-09-28T15:41:04.860Z,14.40
2022-09-28T15:43:34.173Z,14.40
2022-09-28T15:46:18.371Z,14.60
2022-09-28T15:48:59.636Z,14.60
2022-09-28T15:51:28.811Z,14.40
2022-09-28T15:54:02.973Z,14.30
2022-09-28T15:56:30.463Z,14.80
2022-09-28T15:59:18.902Z,14.80
2022-09-28T16:01:46.033Z,14.70
2022-09-28T16:04:38.460Z,14.30
2022-09-28T16:07:23.412Z,14.00
2022-09-28T16:10:04.853Z,14.30
2022-09-28T16:12:37.612Z,14.20
2022-09-28T16:15:26.992Z,14.20
2022-09-28T16:18:30.127Z,14.30
2022-09-28T16:21:52.876Z,14.70
2022-09-28T16:24:33.140Z,14.80
2022-09-28T16:27:20.343Z,14.80
2022-09-28T16:30:21.653Z,15.00
2022-09-28T16:32:58.394Z,14.60
2022-09-28T16:35:50.614Z,14.50
2022-09-28T16:38:18.658Z,14.60
2022-09-28T16:40:49.463Z,14.50
2022-09-28T16:43:29.396Z,13.80
2022-09-28T16:45:58.534Z,12.50
2022-09-28T16:48:30.663Z,12.40
2022-09-28T16:50:58.303Z,12.50
2022-09-28T16:53:44.197Z,12.50
2022-09-28T16:56:12.495Z,12.60
2022-09-28T16:58:39.230Z,12.40
2022-09-28T17:01:10.005Z,12.20
2022-09-28T17:03:37.082Z,12.10
2022-09-28T17:06:06.240Z,12.00
2022-09-28T17:08:35.509Z,11.90
2022-09-28T17:11:22.733Z,11.90
2022-09-28T17:13:49.140Z,11.80
2022-09-28T17:16:20.992Z,11.70
2022-09-28T17:18:52.044Z,11.60
2022-09-28T17:21:20.730Z,11.60
2022-09-28T17:23:49.712Z,12.60
2022-09-28T17:26:19.626Z,13.40
2022-09-28T17:28:46.346Z,13.80
2022-09-28T17:31:16.605Z,13.90
2022-09-28T17:33:43.783Z,13.80
2022-09-28T17:36:14.986Z,13.90
2022-09-28T17:38:42.932Z,14.00
2022-09-28T17:41:19.451Z,13.90
2022-09-28T17:43:47.312Z,13.50
2022-09-28T17:46:28.217Z,13.30
2022-09-28T17:48:57.587Z,13.30
2022-09-28T17:51:24.278Z,13.00
2022-09-28T17:53:50.944Z,12.30
2022-09-28T17:56:17.755Z,11.90
2022-09-28T17:58:44.436Z,11.80
2022-09-28T18:01:11.215Z,11.70
2022-09-28T18:03:38.557Z,11.60
2022-09-28T18:06:07.460Z,11.50
2022-09-28T18:08:34.562Z,11.50
2022-09-28T18:11:04.150Z,11.40
2022-09-28T18:13:30.815Z,11.40
2022-09-28T18:15:58.808Z,11.30
2022-09-28T18:18:26.220Z,11.30
2022-09-28T18:20:52.898Z,11.30
2022-09-28T18:23:19.820Z,11.30
2022-09-28T18:25:47.312Z,11.10
2022-09-28T18:28:14.402Z,11.10
2022-09-28T18:30:43.716Z,11.00
2022-09-28T18:33:12.213Z,11.20
2022-09-28T18:35:39.211Z,11.20
2022-09-28T18:38:06.485Z,11.10
2022-09-28T18:40:34.912Z,11.10
2022-09-28T18:43:02.617Z,10.90
2022-09-28T18:45:29.354Z,10.90
2022-09-28T18:47:56.070Z,10.80
2022-09-28T18:50:23.151Z,11.00
2022-09-28T18:52:49.912Z,11.00
2022-09-28T18:55:16.751Z,11.10
2022-09-28T18:57:44.671Z,11.90
2022-09-28T19:00:12.690Z,12.20
2022-09-28T19:02:39.770Z,12.50
2022-09-28T19:05:07.978Z,13.10
2022-09-28T19:07:34.965Z,13.40
2022-09-28T19:10:01.641Z,13.60
2022-09-28T19:12:28.381Z,13.70
2022-09-28T19:14:55.120Z,13.70
2022-09-28T19:17:21.860Z,13.70
2022-09-28T19:19:48.806Z,13.70
2022-09-28T19:22:15.452Z,13.70
2022-09-28T19:24:42.209Z,13.80
2022-09-28T19:27:08.940Z,13.60
2022-09-28T19:29:35.590Z,13.50
2022-09-28T19:32:02.531Z,13.50
2022-09-28T19:34:30.168Z,13.60
2022-09-28T19:36:57.226Z,13.60
2022-09-28T19:39:24.053Z,13.50
2022-09-28T19:41:54.273Z,13.60
2022-09-28T19:44:26.749Z,13.60
2022-09-28T19:46:55.286Z,13.60
2022-09-28T19:49:23.302Z,13.60
2022-09-28T19:52:12.242Z,13.60
2022-09-28T19:54:41.214Z,13.70
2022-09-28T19:57:08.449Z,13.70
2022-09-28T19:59:37.053Z,13.60
2022-09-28T20:02:05.260Z,13.70
2022-09-28T20:04:31.907Z,13.70
2022-09-28T20:06:59.026Z,13.60
2022-09-28T20:09:25.733Z,13.70
2022-09-28T20:11:53.136Z,13.70
2022-09-28T20:14:26.515Z,13.80
2022-09-28T20:16:57.489Z,13.80
2022-09-28T20:19:24.251Z,13.80
2022-09-28T20:21:51.145Z,13.90
2022-09-28T20:24:18.178Z,13.80
2022-09-28T20:26:45.901Z,13.80
2022-09-28T20:29:13.300Z,13.70
2022-09-28T20:31:40.370Z,13.70
2022-09-28T20:34:07.240Z,13.80
2022-09-28T20:36:34.269Z,13.90
2022-09-28T20:39:01.941Z,13.80
2022-09-28T20:41:33.442Z,13.70
2022-09-28T20:44:04.846Z,13.60
2022-09-28T20:46:32.377Z,13.40
2022-09-28T20:48:59.669Z,13.40
2022-09-28T20:51:26.539Z,13.30
2022-09-28T20:53:55.933Z,13.30
2022-09-28T20:56:26.461Z,13.40
2022-09-28T20:58:53.489Z,13.40
2022-09-28T21:01:24.097Z,13.40
2022-09-28T21:03:52.351Z,13.40
2022-09-28T21:06:21.836Z,13.40
2022-09-28T21:08:49.608Z,13.40
2022-09-28T21:11:18.837Z,13.40
2022-09-28T21:13:45.821Z,13.40
2022-09-28T21:16:15.165Z,13.30
2022-09-28T21:18:42.639Z,13.30
2022-09-28T21:21:12.614Z,13.30
2022-09-28T21:23:39.603Z,13.40
2022-09-28T21:26:15.744Z,13.40
2022-09-28T21:28:44.683Z,13.40
2022-09-28T21:31:12.574Z,13.40
2022-09-28T21:33:39.355Z,13.40
2022-09-28T21:36:07.623Z,13.40
2022-09-28T21:38:34.668Z,13.40
2022-09-28T21:41:02.747Z,13.40
2022-09-28T21:43:31.774Z,13.30
2022-09-28T21:45:59.502Z,13.30
2022-09-28T21:48:28.337Z,13.40
2022-09-28T21:51:06.328Z,13.40
2022-09-28T21:53:38.184Z,13.40
2022-09-28T21:56:07.482Z,13.30
2022-09-28T21:58:35.550Z,13.30
2022-09-28T22:01:07.233Z,13.30
2022-09-28T22:03:36.141Z,13.30
2022-09-28T22:06:04.168Z,13.20
2022-09-28T22:08:31.148Z,13.20
2022-09-28T22:11:06.131Z,13.20
2022-09-28T22:13:35.837Z,13.20
2022-09-28T22:16:03.225Z,13.00
2022-09-28T22:18:31.421Z,13.10
2022-09-28T22:21:06.583Z,13.00
2022-09-28T22:23:34.513Z,12.90
2022-09-28T22:26:04.901Z,13.00
2022-09-28T22:28:31.607Z,13.00
2022-09-28T22:30:58.764Z,13.00
2022-09-28T22:33:26.244Z,13.00
2022-09-28T22:35:53.709Z,13.00
2022-09-28T22:38:24.402Z,13.00
2022-09-28T22:40:56.085Z,13.00
2022-09-28T22:43:24.206Z,12.90
2022-09-28T22:46:05.256Z,12.90
2022-09-28T22:48:32.868Z,12.80
2022-09-28T22:50:59.959Z,12.80
2022-09-28T22:53:26.936Z,12.80
2022-09-28T22:55:56.054Z,12.90
2022-09-28T22:58:25.222Z,12.70
2022-09-28T23:00:51.931Z,12.80
2022-09-28T23:03:18.666Z,12.80
2022-09-28T23:05:55.573Z,12.80
2022-09-28T23:08:23.713Z,12.80
2022-09-28T23:10:51.536Z,12.80
2022-09-28T23:13:18.689Z,12.70
2022-09-28T23:15:55.754Z,12.60
2022-09-28T23:18:23.063Z,12.50
2022-09-28T23:20:57.191Z,12.60
2022-09-28T23:23:24.431Z,12.60
2022-09-28T23:25:52.286Z,12.50
2022-09-28T23:28:20.219Z,12.60
2022-09-28T23:30:47.304Z,12.60
2022-09-28T23:33:18.980Z,12.60
2022-09-28T23:35:46.170Z,12.60
2022-09-28T23:38:14.955Z,12.70
2022-09-28T23:40:42.746Z,12.60
2022-09-28T23:43:09.467Z,12.60
2022-09-28T23:45:36.263Z,12.60
2022-09-28T23:48:03.317Z,12.50
2022-09-28T23:50:30.123Z,12.40
2022-09-28T23:52:57.107Z,12.50
2022-09-28T23:55:23.833Z,12.50
2022-09-28T23:57:50.748Z,12.60
